sensor_id;sensor_type;location;lat;lon;timestamp;P1;durP1;ratioP1;P2;durP2;ratioP2
17570;SDS011;8903;52.220;20.978;2023-07-13T00:01:45;10.57;;;9.47;;
17570;SDS011;8903;52.220;20.978;2023-07-13T00:04:15;12.23;;;11.00;;
17570;SDS011;8903;52.220;20.978;2023-07-13T00:06:45;12.20;;;11.00;;
17570;SDS011;8903;52.220;20.978;2023-07-13T00:09:12;15.17;;;13.57;;
17570;SDS011;8903;52.220;20.978;2023-07-13T00:11:40;11.77;;;10.67;;
17570;SDS011;8903;52.220;20.978;2023-07-13T00:14:07;12.53;;;11.07;;
17570;SDS011;8903;52.220;20.978;2023-07-13T00:16:36;13.30;;;11.33;;
17570;SDS011;8903;52.220;20.978;2023-07-13T00:19:05;12.60;;;11.27;;
17570;SDS011;8903;52.220;20.978;2023-07-13T00:21:32;15.30;;;12.17;;
17570;SDS011;8903;52.220;20.978;2023-07-13T00:24:01;19.93;;;11.90;;
17570;SDS011;8903;52.220;20.978;2023-07-13T00:26:28;12.67;;;11.10;;
17570;SDS011;8903;52.220;20.978;2023-07-13T00:28:57;13.83;;;12.00;;
17570;SDS011;8903;52.220;20.978;2023-07-13T00:31:24;11.43;;;10.43;;
17570;SDS011;8903;52.220;20.978;2023-07-13T00:33:51;12.07;;;10.97;;
17570;SDS011;8903;52.220;20.978;2023-07-13T00:36:19;11.60;;;10.60;;
17570;SDS011;8903;52.220;20.978;2023-07-13T00:38:47;12.80;;;11.50;;
17570;SDS011;8903;52.220;20.978;2023-07-13T00:41:15;13.73;;;12.33;;
17570;SDS011;8903;52.220;20.978;2023-07-13T00:43:42;14.20;;;12.80;;
17570;SDS011;8903;52.220;20.978;2023-07-13T00:46:11;15.47;;;13.80;;
17570;SDS011;8903;52.220;20.978;2023-07-13T00:48:41;14.10;;;12.63;;
17570;SDS011;8903;52.220;20.978;2023-07-13T00:51:10;13.80;;;12.27;;
17570;SDS011;8903;52.220;20.978;2023-07-13T00:53:40;13.20;;;11.90;;
17570;SDS011;8903;52.220;20.978;2023-07-13T00:56:07;13.97;;;11.80;;
17570;SDS011;8903;52.220;20.978;2023-07-13T00:58:37;14.07;;;11.97;;
17570;SDS011;8903;52.220;20.978;2023-07-13T01:01:04;13.17;;;11.87;;
17570;SDS011;8903;52.220;20.978;2023-07-13T01:03:31;16.47;;;14.23;;
17570;SDS011;8903;52.220;20.978;2023-07-13T01:06:00;14.67;;;13.17;;
17570;SDS011;8903;52.220;20.978;2023-07-13T01:08:28;17.37;;;12.63;;
17570;SDS011;8903;52.220;20.978;2023-07-13T01:10:55;15.60;;;12.27;;
17570;SDS011;8903;52.220;20.978;2023-07-13T01:13:24;14.53;;;12.80;;
17570;SDS011;8903;52.220;20.978;2023-07-13T01:15:52;13.30;;;11.90;;
17570;SDS011;8903;52.220;20.978;2023-07-13T01:18:23;13.97;;;12.67;;
17570;SDS011;8903;52.220;20.978;2023-07-13T01:20:56;14.47;;;12.10;;
17570;SDS011;8903;52.220;20.978;2023-07-13T01:23:24;15.13;;;13.53;;
17570;SDS011;8903;52.220;20.978;2023-07-13T01:25:54;15.20;;;12.60;;
17570;SDS011;8903;52.220;20.978;2023-07-13T01:28:22;13.17;;;12.07;;
17570;SDS011;8903;52.220;20.978;2023-07-13T01:30:52;15.00;;;13.43;;
17570;SDS011;8903;52.220;20.978;2023-07-13T01:33:21;15.53;;;13.40;;
17570;SDS011;8903;52.220;20.978;2023-07-13T01:35:49;16.63;;;12.87;;
17570;SDS011;8903;52.220;20.978;2023-07-13T01:38:18;14.27;;;12.83;;
17570;SDS011;8903;52.220;20.978;2023-07-13T01:40:47;17.10;;;14.13;;
17570;SDS011;8903;52.220;20.978;2023-07-13T01:43:15;14.43;;;13.03;;
17570;SDS011;8903;52.220;20.978;2023-07-13T01:45:43;20.03;;;14.30;;
17570;SDS011;8903;52.220;20.978;2023-07-13T01:48:11;14.70;;;13.20;;
17570;SDS011;8903;52.220;20.978;2023-07-13T01:50:40;14.53;;;13.03;;
17570;SDS011;8903;52.220;20.978;2023-07-13T01:53:07;13.93;;;12.57;;
17570;SDS011;8903;52.220;20.978;2023-07-13T01:55:35;18.40;;;14.43;;
17570;SDS011;8903;52.220;20.978;2023-07-13T01:58:03;15.37;;;13.87;;
17570;SDS011;8903;52.220;20.978;2023-07-13T02:00:31;15.73;;;13.50;;
17570;SDS011;8903;52.220;20.978;2023-07-13T02:03:01;16.53;;;13.90;;
17570;SDS011;8903;52.220;20.978;2023-07-13T02:05:28;14.30;;;12.47;;
17570;SDS011;8903;52.220;20.978;2023-07-13T02:07:55;15.87;;;14.23;;
17570;SDS011;8903;52.220;20.978;2023-07-13T02:10:22;15.37;;;13.77;;
17570;SDS011;8903;52.220;20.978;2023-07-13T02:12:50;15.47;;;13.83;;
17570;SDS011;8903;52.220;20.978;2023-07-13T02:15:17;15.87;;;14.23;;
17570;SDS011;8903;52.220;20.978;2023-07-13T02:17:44;15.77;;;14.17;;
17570;SDS011;8903;52.220;20.978;2023-07-13T02:20:11;16.53;;;14.60;;
17570;SDS011;8903;52.220;20.978;2023-07-13T02:22:38;18.23;;;14.20;;
17570;SDS011;8903;52.220;20.978;2023-07-13T02:25:05;16.50;;;13.60;;
17570;SDS011;8903;52.220;20.978;2023-07-13T02:27:32;19.20;;;14.23;;
17570;SDS011;8903;52.220;20.978;2023-07-13T02:30:01;16.50;;;15.00;;
17570;SDS011;8903;52.220;20.978;2023-07-13T02:32:28;16.10;;;13.97;;
17570;SDS011;8903;52.220;20.978;2023-07-13T02:34:55;15.33;;;13.57;;
17570;SDS011;8903;52.220;20.978;2023-07-13T02:37:22;15.73;;;14.17;;
17570;SDS011;8903;52.220;20.978;2023-07-13T02:39:49;17.53;;;15.03;;
17570;SDS011;8903;52.220;20.978;2023-07-13T02:42:16;15.70;;;14.17;;
17570;SDS011;8903;52.220;20.978;2023-07-13T02:44:43;18.10;;;16.40;;
17570;SDS011;8903;52.220;20.978;2023-07-13T02:47:12;17.60;;;15.70;;
17570;SDS011;8903;52.220;20.978;2023-07-13T02:49:39;19.13;;;15.23;;
17570;SDS011;8903;52.220;20.978;2023-07-13T02:52:06;15.40;;;13.80;;
17570;SDS011;8903;52.220;20.978;2023-07-13T02:54:33;19.07;;;16.03;;
17570;SDS011;8903;52.220;20.978;2023-07-13T02:57:00;17.43;;;15.60;;
17570;SDS011;8903;52.220;20.978;2023-07-13T02:59:27;17.17;;;15.33;;
17570;SDS011;8903;52.220;20.978;2023-07-13T03:01:54;18.70;;;15.67;;
17570;SDS011;8903;52.220;20.978;2023-07-13T03:04:23;19.10;;;17.13;;
17570;SDS011;8903;52.220;20.978;2023-07-13T03:06:50;19.20;;;17.10;;
17570;SDS011;8903;52.220;20.978;2023-07-13T03:09:17;17.07;;;14.73;;
17570;SDS011;8903;52.220;20.978;2023-07-13T03:11:52;17.30;;;15.00;;
17570;SDS011;8903;52.220;20.978;2023-07-13T03:14:25;17.37;;;15.50;;
17570;SDS011;8903;52.220;20.978;2023-07-13T03:16:52;20.30;;;17.10;;
17570;SDS011;8903;52.220;20.978;2023-07-13T03:19:25;19.23;;;16.13;;
17570;SDS011;8903;52.220;20.978;2023-07-13T03:21:53;20.43;;;18.43;;
17570;SDS011;8903;52.220;20.978;2023-07-13T03:24:20;27.97;;;17.20;;
17570;SDS011;8903;52.220;20.978;2023-07-13T03:26:50;18.70;;;16.70;;
17570;SDS011;8903;52.220;20.978;2023-07-13T03:29:18;23.37;;;17.90;;
17570;SDS011;8903;52.220;20.978;2023-07-13T03:31:45;17.90;;;15.97;;
17570;SDS011;8903;52.220;20.978;2023-07-13T03:34:12;19.70;;;16.60;;
17570;SDS011;8903;52.220;20.978;2023-07-13T03:36:41;18.30;;;16.50;;
17570;SDS011;8903;52.220;20.978;2023-07-13T03:39:12;18.07;;;16.03;;
17570;SDS011;8903;52.220;20.978;2023-07-13T03:41:48;19.73;;;17.47;;
17570;SDS011;8903;52.220;20.978;2023-07-13T03:44:15;22.20;;;16.97;;
17570;SDS011;8903;52.220;20.978;2023-07-13T03:46:43;18.13;;;16.30;;
17570;SDS011;8903;52.220;20.978;2023-07-13T03:49:10;25.37;;;18.43;;
17570;SDS011;8903;52.220;20.978;2023-07-13T03:51:37;25.17;;;18.50;;
17570;SDS011;8903;52.220;20.978;2023-07-13T03:54:05;21.90;;;17.37;;
17570;SDS011;8903;52.220;20.978;2023-07-13T03:56:32;20.93;;;16.60;;
17570;SDS011;8903;52.220;20.978;2023-07-13T03:59:02;22.37;;;17.87;;
17570;SDS011;8903;52.220;20.978;2023-07-13T04:01:29;19.60;;;17.60;;
17570;SDS011;8903;52.220;20.978;2023-07-13T04:03:57;19.50;;;17.40;;
17570;SDS011;8903;52.220;20.978;2023-07-13T04:06:26;22.77;;;18.40;;
17570;SDS011;8903;52.220;20.978;2023-07-13T04:08:56;23.80;;;17.23;;
17570;SDS011;8903;52.220;20.978;2023-07-13T04:11:27;18.83;;;17.00;;
17570;SDS011;8903;52.220;20.978;2023-07-13T04:13:56;20.00;;;17.90;;
17570;SDS011;8903;52.220;20.978;2023-07-13T04:16:24;22.57;;;18.07;;
17570;SDS011;8903;52.220;20.978;2023-07-13T04:18:51;18.37;;;16.00;;
17570;SDS011;8903;52.220;20.978;2023-07-13T04:21:20;21.93;;;17.83;;
17570;SDS011;8903;52.220;20.978;2023-07-13T04:23:47;18.20;;;16.33;;
17570;SDS011;8903;52.220;20.978;2023-07-13T04:26:14;20.40;;;18.30;;
17570;SDS011;8903;52.220;20.978;2023-07-13T04:28:42;19.37;;;17.50;;
17570;SDS011;8903;52.220;20.978;2023-07-13T04:31:09;21.50;;;18.17;;
17570;SDS011;8903;52.220;20.978;2023-07-13T04:33:36;19.33;;;17.37;;
17570;SDS011;8903;52.220;20.978;2023-07-13T04:36:03;19.87;;;17.87;;
17570;SDS011;8903;52.220;20.978;2023-07-13T04:38:31;19.13;;;17.00;;
17570;SDS011;8903;52.220;20.978;2023-07-13T04:40:59;22.37;;;16.93;;
17570;SDS011;8903;52.220;20.978;2023-07-13T04:43:28;18.40;;;16.40;;
17570;SDS011;8903;52.220;20.978;2023-07-13T04:45:57;24.53;;;17.53;;
17570;SDS011;8903;52.220;20.978;2023-07-13T04:48:29;19.80;;;16.77;;
17570;SDS011;8903;52.220;20.978;2023-07-13T04:50:56;20.13;;;17.73;;
17570;SDS011;8903;52.220;20.978;2023-07-13T04:53:24;21.77;;;19.50;;
17570;SDS011;8903;52.220;20.978;2023-07-13T04:55:51;19.97;;;17.87;;
17570;SDS011;8903;52.220;20.978;2023-07-13T04:58:18;21.27;;;17.67;;
17570;SDS011;8903;52.220;20.978;2023-07-13T05:00:46;19.17;;;17.13;;
17570;SDS011;8903;52.220;20.978;2023-07-13T05:03:15;23.57;;;18.33;;
17570;SDS011;8903;52.220;20.978;2023-07-13T05:05:42;24.17;;;17.53;;
17570;SDS011;8903;52.220;20.978;2023-07-13T05:08:09;19.90;;;16.50;;
17570;SDS011;8903;52.220;20.978;2023-07-13T05:10:36;20.00;;;17.63;;
17570;SDS011;8903;52.220;20.978;2023-07-13T05:13:02;20.90;;;16.40;;
17570;SDS011;8903;52.220;20.978;2023-07-13T05:15:30;17.97;;;16.17;;
17570;SDS011;8903;52.220;20.978;2023-07-13T05:17:56;16.63;;;15.00;;
17570;SDS011;8903;52.220;20.978;2023-07-13T05:20:25;18.53;;;16.63;;
17570;SDS011;8903;52.220;20.978;2023-07-13T05:22:52;19.77;;;16.17;;
17570;SDS011;8903;52.220;20.978;2023-07-13T05:25:18;17.20;;;15.50;;
17570;SDS011;8903;52.220;20.978;2023-07-13T05:27:45;16.97;;;15.27;;
17570;SDS011;8903;52.220;20.978;2023-07-13T05:30:13;19.40;;;15.83;;
17570;SDS011;8903;52.220;20.978;2023-07-13T05:32:40;16.30;;;14.60;;
17570;SDS011;8903;52.220;20.978;2023-07-13T05:35:07;18.10;;;15.53;;
17570;SDS011;8903;52.220;20.978;2023-07-13T05:37:37;20.10;;;17.00;;
17570;SDS011;8903;52.220;20.978;2023-07-13T05:40:04;23.40;;;14.67;;
17570;SDS011;8903;52.220;20.978;2023-07-13T05:42:32;17.40;;;15.67;;
17570;SDS011;8903;52.220;20.978;2023-07-13T05:44:59;15.10;;;13.70;;
17570;SDS011;8903;52.220;20.978;2023-07-13T05:47:26;17.27;;;15.47;;
17570;SDS011;8903;52.220;20.978;2023-07-13T05:49:53;15.50;;;13.90;;
17570;SDS011;8903;52.220;20.978;2023-07-13T05:52:20;14.40;;;13.07;;
17570;SDS011;8903;52.220;20.978;2023-07-13T05:54:48;14.27;;;12.87;;
17570;SDS011;8903;52.220;20.978;2023-07-13T05:57:15;14.50;;;12.80;;
17570;SDS011;8903;52.220;20.978;2023-07-13T05:59:42;12.33;;;11.07;;
17570;SDS011;8903;52.220;20.978;2023-07-13T06:02:09;12.50;;;11.10;;
17570;SDS011;8903;52.220;20.978;2023-07-13T06:04:36;13.77;;;12.20;;
17570;SDS011;8903;52.220;20.978;2023-07-13T06:07:04;13.23;;;11.80;;
17570;SDS011;8903;52.220;20.978;2023-07-13T06:09:31;13.53;;;10.80;;
17570;SDS011;8903;52.220;20.978;2023-07-13T06:11:59;12.07;;;10.90;;
17570;SDS011;8903;52.220;20.978;2023-07-13T06:14:26;12.97;;;11.63;;
17570;SDS011;8903;52.220;20.978;2023-07-13T06:16:53;11.33;;;10.13;;
17570;SDS011;8903;52.220;20.978;2023-07-13T06:19:20;13.87;;;11.03;;
17570;SDS011;8903;52.220;20.978;2023-07-13T06:21:47;13.13;;;10.63;;
17570;SDS011;8903;52.220;20.978;2023-07-13T06:24:14;10.77;;;9.77;;
17570;SDS011;8903;52.220;20.978;2023-07-13T06:26:41;11.53;;;10.40;;
17570;SDS011;8903;52.220;20.978;2023-07-13T06:29:09;10.43;;;9.43;;
17570;SDS011;8903;52.220;20.978;2023-07-13T06:31:36;17.13;;;12.53;;
17570;SDS011;8903;52.220;20.978;2023-07-13T06:34:03;10.93;;;9.93;;
17570;SDS011;8903;52.220;20.978;2023-07-13T06:36:30;14.87;;;10.87;;
17570;SDS011;8903;52.220;20.978;2023-07-13T06:38:57;7.77;;;7.00;;
17570;SDS011;8903;52.220;20.978;2023-07-13T06:41:24;12.33;;;9.30;;
17570;SDS011;8903;52.220;20.978;2023-07-13T06:43:51;10.83;;;8.63;;
17570;SDS011;8903;52.220;20.978;2023-07-13T06:46:21;8.37;;;7.00;;
17570;SDS011;8903;52.220;20.978;2023-07-13T06:48:48;7.77;;;6.60;;
17570;SDS011;8903;52.220;20.978;2023-07-13T06:51:15;12.20;;;7.13;;
17570;SDS011;8903;52.220;20.978;2023-07-13T06:53:42;6.70;;;6.10;;
17570;SDS011;8903;52.220;20.978;2023-07-13T06:56:09;7.03;;;6.33;;
17570;SDS011;8903;52.220;20.978;2023-07-13T06:58:36;6.63;;;5.93;;
17570;SDS011;8903;52.220;20.978;2023-07-13T07:01:04;9.77;;;6.07;;
17570;SDS011;8903;52.220;20.978;2023-07-13T07:03:33;5.33;;;4.30;;
17570;SDS011;8903;52.220;20.978;2023-07-13T07:06:00;5.90;;;4.03;;
17570;SDS011;8903;52.220;20.978;2023-07-13T07:08:27;6.43;;;4.37;;
17570;SDS011;8903;52.220;20.978;2023-07-13T07:10:54;5.70;;;4.13;;
17570;SDS011;8903;52.220;20.978;2023-07-13T07:13:21;5.83;;;3.63;;
17570;SDS011;8903;52.220;20.978;2023-07-13T07:15:49;9.30;;;4.40;;
17570;SDS011;8903;52.220;20.978;2023-07-13T07:18:17;4.30;;;3.90;;
17570;SDS011;8903;52.220;20.978;2023-07-13T07:20:45;9.10;;;4.80;;
17570;SDS011;8903;52.220;20.978;2023-07-13T07:23:12;7.43;;;4.53;;
17570;SDS011;8903;52.220;20.978;2023-07-13T07:25:39;5.43;;;4.93;;
17570;SDS011;8903;52.220;20.978;2023-07-13T07:28:07;17.63;;;8.30;;
17570;SDS011;8903;52.220;20.978;2023-07-13T07:30:34;9.50;;;4.57;;
17570;SDS011;8903;52.220;20.978;2023-07-13T07:33:01;4.10;;;3.70;;
17570;SDS011;8903;52.220;20.978;2023-07-13T07:35:28;4.43;;;3.60;;
17570;SDS011;8903;52.220;20.978;2023-07-13T07:37:56;4.43;;;3.53;;
17570;SDS011;8903;52.220;20.978;2023-07-13T07:40:23;5.97;;;4.77;;
17570;SDS011;8903;52.220;20.978;2023-07-13T07:42:51;4.33;;;3.90;;
17570;SDS011;8903;52.220;20.978;2023-07-13T07:45:18;6.77;;;4.37;;
17570;SDS011;8903;52.220;20.978;2023-07-13T07:47:45;7.50;;;4.50;;
17570;SDS011;8903;52.220;20.978;2023-07-13T07:50:13;5.53;;;4.50;;
17570;SDS011;8903;52.220;20.978;2023-07-13T07:52:40;4.37;;;3.97;;
17570;SDS011;8903;52.220;20.978;2023-07-13T07:55:09;4.40;;;4.00;;
17570;SDS011;8903;52.220;20.978;2023-07-13T07:57:36;5.10;;;4.17;;
17570;SDS011;8903;52.220;20.978;2023-07-13T08:00:03;5.13;;;3.40;;
17570;SDS011;8903;52.220;20.978;2023-07-13T08:02:39;4.10;;;3.50;;
17570;SDS011;8903;52.220;20.978;2023-07-13T08:05:06;4.47;;;3.80;;
17570;SDS011;8903;52.220;20.978;2023-07-13T08:07:34;4.93;;;4.13;;
17570;SDS011;8903;52.220;20.978;2023-07-13T08:10:02;3.90;;;3.50;;
17570;SDS011;8903;52.220;20.978;2023-07-13T08:12:30;10.03;;;4.00;;
17570;SDS011;8903;52.220;20.978;2023-07-13T08:15:00;4.80;;;4.37;;
17570;SDS011;8903;52.220;20.978;2023-07-13T08:17:27;4.80;;;3.90;;
17570;SDS011;8903;52.220;20.978;2023-07-13T08:19:54;3.50;;;3.30;;
17570;SDS011;8903;52.220;20.978;2023-07-13T08:22:21;5.23;;;4.33;;
17570;SDS011;8903;52.220;20.978;2023-07-13T08:24:48;5.77;;;4.50;;
17570;SDS011;8903;52.220;20.978;2023-07-13T08:27:21;17.97;;;5.57;;
17570;SDS011;8903;52.220;20.978;2023-07-13T08:29:50;5.10;;;4.67;;
17570;SDS011;8903;52.220;20.978;2023-07-13T08:32:17;5.73;;;5.23;;
17570;SDS011;8903;52.220;20.978;2023-07-13T08:34:45;5.60;;;5.10;;
17570;SDS011;8903;52.220;20.978;2023-07-13T08:37:12;8.20;;;6.27;;
17570;SDS011;8903;52.220;20.978;2023-07-13T08:39:39;7.00;;;5.90;;
17570;SDS011;8903;52.220;20.978;2023-07-13T08:42:07;7.00;;;6.50;;
17570;SDS011;8903;52.220;20.978;2023-07-13T08:44:43;10.50;;;6.00;;
17570;SDS011;8903;52.220;20.978;2023-07-13T08:47:26;10.30;;;7.40;;
17570;SDS011;8903;52.220;20.978;2023-07-13T08:49:56;6.73;;;6.10;;
17570;SDS011;8903;52.220;20.978;2023-07-13T08:52:26;7.53;;;6.83;;
17570;SDS011;8903;52.220;20.978;2023-07-13T08:54:58;6.73;;;5.80;;
17570;SDS011;8903;52.220;20.978;2023-07-13T08:57:33;7.50;;;6.00;;
17570;SDS011;8903;52.220;20.978;2023-07-13T09:00:02;6.80;;;6.00;;
17570;SDS011;8903;52.220;20.978;2023-07-13T09:02:34;6.20;;;5.00;;
17570;SDS011;8903;52.220;20.978;2023-07-13T09:05:09;6.17;;;5.10;;
17570;SDS011;8903;52.220;20.978;2023-07-13T09:07:43;6.43;;;5.83;;
17570;SDS011;8903;52.220;20.978;2023-07-13T09:10:23;5.60;;;5.20;;
17570;SDS011;8903;52.220;20.978;2023-07-13T09:12:57;8.63;;;6.07;;
17570;SDS011;8903;52.220;20.978;2023-07-13T09:15:34;7.03;;;5.90;;
17570;SDS011;8903;52.220;20.978;2023-07-13T09:18:07;6.67;;;6.10;;
17570;SDS011;8903;52.220;20.978;2023-07-13T09:20:38;6.47;;;5.97;;
17570;SDS011;8903;52.220;20.978;2023-07-13T09:23:13;6.93;;;6.43;;
17570;SDS011;8903;52.220;20.978;2023-07-13T09:25:43;7.40;;;6.70;;
17570;SDS011;8903;52.220;20.978;2023-07-13T09:28:14;7.10;;;6.20;;
17570;SDS011;8903;52.220;20.978;2023-07-13T09:30:49;7.73;;;6.97;;
17570;SDS011;8903;52.220;20.978;2023-07-13T09:33:19;13.47;;;12.17;;
17570;SDS011;8903;52.220;20.978;2023-07-13T09:35:48;7.67;;;6.90;;
17570;SDS011;8903;52.220;20.978;2023-07-13T09:38:16;9.40;;;5.80;;
17570;SDS011;8903;52.220;20.978;2023-07-13T09:40:53;9.40;;;7.00;;
17570;SDS011;8903;52.220;20.978;2023-07-13T09:43:27;6.20;;;5.70;;
17570;SDS011;8903;52.220;20.978;2023-07-13T09:45:56;6.30;;;5.50;;
17570;SDS011;8903;52.220;20.978;2023-07-13T09:48:26;5.20;;;4.70;;
17570;SDS011;8903;52.220;20.978;2023-07-13T09:51:03;8.83;;;5.20;;
17570;SDS011;8903;52.220;20.978;2023-07-13T09:53:39;8.20;;;5.30;;
17570;SDS011;8903;52.220;20.978;2023-07-13T09:56:18;6.70;;;4.70;;
17570;SDS011;8903;52.220;20.978;2023-07-13T09:58:46;6.90;;;5.37;;
17570;SDS011;8903;52.220;20.978;2023-07-13T10:01:14;6.73;;;4.90;;
17570;SDS011;8903;52.220;20.978;2023-07-13T10:03:51;6.50;;;4.47;;
17570;SDS011;8903;52.220;20.978;2023-07-13T10:06:19;9.20;;;5.70;;
17570;SDS011;8903;52.220;20.978;2023-07-13T10:08:48;6.80;;;4.33;;
17570;SDS011;8903;52.220;20.978;2023-07-13T10:11:18;5.37;;;4.87;;
17570;SDS011;8903;52.220;20.978;2023-07-13T10:13:50;6.30;;;4.57;;
17570;SDS011;8903;52.220;20.978;2023-07-13T10:16:22;10.37;;;8.33;;
17570;SDS011;8903;52.220;20.978;2023-07-13T10:18:51;8.50;;;5.00;;
17570;SDS011;8903;52.220;20.978;2023-07-13T10:21:27;7.00;;;5.70;;
17570;SDS011;8903;52.220;20.978;2023-07-13T10:24:00;11.47;;;4.90;;
17570;SDS011;8903;52.220;20.978;2023-07-13T10:26:33;5.43;;;4.97;;
17570;SDS011;8903;52.220;20.978;2023-07-13T10:29:01;5.83;;;5.00;;
17570;SDS011;8903;52.220;20.978;2023-07-13T10:31:33;13.90;;;5.50;;
17570;SDS011;8903;52.220;20.978;2023-07-13T10:34:03;5.73;;;5.20;;
17570;SDS011;8903;52.220;20.978;2023-07-13T10:36:31;7.00;;;5.50;;
17570;SDS011;8903;52.220;20.978;2023-07-13T10:39:02;8.83;;;6.37;;
17570;SDS011;8903;52.220;20.978;2023-07-13T10:41:32;16.47;;;7.00;;
17570;SDS011;8903;52.220;20.978;2023-07-13T10:44:02;8.10;;;7.20;;
17570;SDS011;8903;52.220;20.978;2023-07-13T10:46:34;13.80;;;9.27;;
17570;SDS011;8903;52.220;20.978;2023-07-13T10:49:02;35.63;;;10.10;;
17570;SDS011;8903;52.220;20.978;2023-07-13T10:51:31;16.00;;;10.70;;
17570;SDS011;8903;52.220;20.978;2023-07-13T10:54:10;19.80;;;9.67;;
17570;SDS011;8903;52.220;20.978;2023-07-13T10:56:42;22.13;;;10.43;;
17570;SDS011;8903;52.220;20.978;2023-07-13T10:59:11;11.57;;;8.90;;
17570;SDS011;8903;52.220;20.978;2023-07-13T11:01:48;13.27;;;9.73;;
17570;SDS011;8903;52.220;20.978;2023-07-13T11:04:19;16.60;;;9.50;;
17570;SDS011;8903;52.220;20.978;2023-07-13T11:06:48;22.53;;;10.80;;
17570;SDS011;8903;52.220;20.978;2023-07-13T11:09:30;14.87;;;10.30;;
17570;SDS011;8903;52.220;20.978;2023-07-13T11:12:02;37.60;;;14.80;;
17570;SDS011;8903;52.220;20.978;2023-07-13T11:14:34;26.07;;;14.80;;
17570;SDS011;8903;52.220;20.978;2023-07-13T11:20:22;29.17;;;16.77;;
17570;SDS011;8903;52.220;20.978;2023-07-13T11:23:07;25.63;;;18.90;;
17570;SDS011;8903;52.220;20.978;2023-07-13T11:25:43;34.07;;;19.50;;
17570;SDS011;8903;52.220;20.978;2023-07-13T11:28:17;34.83;;;19.20;;
17570;SDS011;8903;52.220;20.978;2023-07-13T11:30:49;37.40;;;24.63;;
17570;SDS011;8903;52.220;20.978;2023-07-13T11:33:44;46.13;;;24.63;;
17570;SDS011;8903;52.220;20.978;2023-07-13T11:36:30;39.20;;;22.90;;
17570;SDS011;8903;52.220;20.978;2023-07-13T11:39:14;27.23;;;20.80;;
17570;SDS011;8903;52.220;20.978;2023-07-13T11:41:49;36.10;;;20.53;;
17570;SDS011;8903;52.220;20.978;2023-07-13T11:44:18;24.17;;;17.00;;
17570;SDS011;8903;52.220;20.978;2023-07-13T11:46:47;28.10;;;15.50;;
17570;SDS011;8903;52.220;20.978;2023-07-13T11:49:18;23.30;;;16.20;;
17570;SDS011;8903;52.220;20.978;2023-07-13T11:51:46;27.40;;;18.40;;
17570;SDS011;8903;52.220;20.978;2023-07-13T11:54:22;19.87;;;16.67;;
17570;SDS011;8903;52.220;20.978;2023-07-13T11:56:51;29.03;;;19.27;;
17570;SDS011;8903;52.220;20.978;2023-07-13T11:59:20;18.30;;;14.13;;
17570;SDS011;8903;52.220;20.978;2023-07-13T12:01:49;17.93;;;13.00;;
17570;SDS011;8903;52.220;20.978;2023-07-13T12:04:21;57.07;;;17.40;;
17570;SDS011;8903;52.220;20.978;2023-07-13T12:07:03;12.03;;;10.90;;
17570;SDS011;8903;52.220;20.978;2023-07-13T12:09:33;17.10;;;13.03;;
17570;SDS011;8903;52.220;20.978;2023-07-13T12:12:01;14.23;;;12.40;;
17570;SDS011;8903;52.220;20.978;2023-07-13T12:14:33;15.00;;;12.47;;
17570;SDS011;8903;52.220;20.978;2023-07-13T12:17:00;21.90;;;16.07;;
17570;SDS011;8903;52.220;20.978;2023-07-13T12:19:30;16.10;;;14.30;;
17570;SDS011;8903;52.220;20.978;2023-07-13T12:21:57;22.73;;;15.30;;
17570;SDS011;8903;52.220;20.978;2023-07-13T12:24:25;23.90;;;17.87;;
17570;SDS011;8903;52.220;20.978;2023-07-13T12:26:54;21.77;;;17.77;;
17570;SDS011;8903;52.220;20.978;2023-07-13T12:29:25;27.33;;;20.40;;
17570;SDS011;8903;52.220;20.978;2023-07-13T12:31:53;26.77;;;18.47;;
17570;SDS011;8903;52.220;20.978;2023-07-13T12:34:21;28.53;;;20.67;;
17570;SDS011;8903;52.220;20.978;2023-07-13T12:36:52;42.80;;;23.87;;
17570;SDS011;8903;52.220;20.978;2023-07-13T12:39:22;31.00;;;21.10;;
17570;SDS011;8903;52.220;20.978;2023-07-13T12:41:51;26.77;;;20.13;;
17570;SDS011;8903;52.220;20.978;2023-07-13T12:44:22;29.90;;;20.60;;
17570;SDS011;8903;52.220;20.978;2023-07-13T12:46:55;31.97;;;20.33;;
17570;SDS011;8903;52.220;20.978;2023-07-13T12:49:26;33.73;;;23.17;;
17570;SDS011;8903;52.220;20.978;2023-07-13T12:52:00;38.60;;;24.30;;
17570;SDS011;8903;52.220;20.978;2023-07-13T12:54:29;32.43;;;21.27;;
17570;SDS011;8903;52.220;20.978;2023-07-13T12:56:58;34.93;;;23.00;;
17570;SDS011;8903;52.220;20.978;2023-07-13T12:59:32;31.63;;;18.47;;
17570;SDS011;8903;52.220;20.978;2023-07-13T13:02:04;28.63;;;18.83;;
17570;SDS011;8903;52.220;20.978;2023-07-13T13:04:47;29.43;;;20.60;;
17570;SDS011;8903;52.220;20.978;2023-07-13T13:07:16;30.60;;;19.67;;
17570;SDS011;8903;52.220;20.978;2023-07-13T13:09:45;38.43;;;22.00;;
17570;SDS011;8903;52.220;20.978;2023-07-13T13:12:13;27.20;;;20.20;;
17570;SDS011;8903;52.220;20.978;2023-07-13T13:14:40;38.97;;;23.00;;
17570;SDS011;8903;52.220;20.978;2023-07-13T13:17:11;34.70;;;22.13;;
17570;SDS011;8903;52.220;20.978;2023-07-13T13:19:45;29.37;;;20.47;;
17570;SDS011;8903;52.220;20.978;2023-07-13T13:22:13;26.80;;;21.00;;
17570;SDS011;8903;52.220;20.978;2023-07-13T13:24:41;30.67;;;21.80;;
17570;SDS011;8903;52.220;20.978;2023-07-13T13:27:12;39.20;;;23.73;;
17570;SDS011;8903;52.220;20.978;2023-07-13T13:29:42;37.60;;;23.50;;
17570;SDS011;8903;52.220;20.978;2023-07-13T13:32:10;40.50;;;24.00;;
17570;SDS011;8903;52.220;20.978;2023-07-13T13:34:39;30.67;;;21.83;;
17570;SDS011;8903;52.220;20.978;2023-07-13T13:37:09;30.90;;;20.50;;
17570;SDS011;8903;52.220;20.978;2023-07-13T13:39:45;27.83;;;21.40;;
17570;SDS011;8903;52.220;20.978;2023-07-13T13:42:13;30.07;;;22.03;;
17570;SDS011;8903;52.220;20.978;2023-07-13T13:44:40;28.27;;;22.37;;
17570;SDS011;8903;52.220;20.978;2023-07-13T13:47:12;27.30;;;21.40;;
17570;SDS011;8903;52.220;20.978;2023-07-13T13:49:48;32.30;;;23.30;;
17570;SDS011;8903;52.220;20.978;2023-07-13T13:52:15;31.63;;;22.23;;
17570;SDS011;8903;52.220;20.978;2023-07-13T13:54:44;32.90;;;24.03;;
17570;SDS011;8903;52.220;20.978;2023-07-13T13:57:11;32.93;;;25.30;;
17570;SDS011;8903;52.220;20.978;2023-07-13T13:59:38;34.07;;;24.87;;
17570;SDS011;8903;52.220;20.978;2023-07-13T14:02:10;35.53;;;26.40;;
17570;SDS011;8903;52.220;20.978;2023-07-13T14:04:52;31.43;;;24.40;;
17570;SDS011;8903;52.220;20.978;2023-07-13T14:07:23;35.80;;;26.20;;
17570;SDS011;8903;52.220;20.978;2023-07-13T14:09:54;27.40;;;23.17;;
17570;SDS011;8903;52.220;20.978;2023-07-13T14:12:24;38.17;;;24.97;;
17570;SDS011;8903;52.220;20.978;2023-07-13T14:14:53;34.50;;;24.90;;
17570;SDS011;8903;52.220;20.978;2023-07-13T14:17:24;30.80;;;25.03;;
17570;SDS011;8903;52.220;20.978;2023-07-13T14:19:52;37.80;;;26.37;;
17570;SDS011;8903;52.220;20.978;2023-07-13T14:22:22;30.67;;;25.23;;
17570;SDS011;8903;52.220;20.978;2023-07-13T14:24:52;31.30;;;24.43;;
17570;SDS011;8903;52.220;20.978;2023-07-13T14:27:20;33.83;;;27.07;;
17570;SDS011;8903;52.220;20.978;2023-07-13T14:29:47;29.10;;;25.67;;
17570;SDS011;8903;52.220;20.978;2023-07-13T14:32:14;33.03;;;24.43;;
17570;SDS011;8903;52.220;20.978;2023-07-13T14:34:41;30.43;;;22.23;;
17570;SDS011;8903;52.220;20.978;2023-07-13T14:37:11;32.17;;;24.03;;
17570;SDS011;8903;52.220;20.978;2023-07-13T14:39:42;27.87;;;24.20;;
17570;SDS011;8903;52.220;20.978;2023-07-13T14:42:11;25.23;;;22.53;;
17570;SDS011;8903;52.220;20.978;2023-07-13T14:44:38;31.20;;;24.03;;